Dades meteomassalio
Diari Summary for Octubre 1, 2017 Units:  English    Metric   Both
« Previous Day
Next Day »
Diari Semanal Mensual Anual Personalitzat
  Maxima: Minima: Mijana:
Temperatura: TemperatureC °F 13.3 °F 18.5 °F
Rosada: DewpointC °F 7.6 °F 12.2 °F
Humitat: Humidity % 47 % 68 %
Velocitat del vent: WindSpeedKMH mph 0.0 mph 14 mph
Racha vent: WindSpeedGustKMH mph - -
Vent:- - SW
Pressio: PressurehPa in 1022.6 in -
Pluja: 0.0 in    
Historical Graphs
 
 
Tabular Data for Octubre 1, 2017
Time Temperature Dew Point Pressure Wind Wind Speed Wind Gust Humidity Rainfall Rate (Hourly) solar Conditions
TemperatureC °F DewpointC °F PressurehPa in Calm     Humidity % HourlyPrecipMM in SolarRadiationWatts/m^2 W/m2 Conditions
00:01 16.1 °F 13.9 °F 1023.6 in Calm     87 % 0.0 in 0.0 W/m2 CLR
00:06 16.1 °F 13.9 °F 1023.2 in Calm     87 % 0.0 in 0.0 W/m2 CLR
00:11 16.1 °F 13.9 °F 1023.2 in Calm     87 % 0.0 in 0.0 W/m2 CLR
00:16 15.6 °F 13.4 °F 1023.2 in Calm     87 % 0.0 in 0.0 W/m2 CLR
00:21 15.6 °F 13.4 °F 1023.6 in Calm     87 % 0.0 in 0.0 W/m2 CLR
00:26 15.6 °F 13.6 °F 1023.2 in Calm     88 % 0.0 in 0.0 W/m2 CLR
00:31 15.6 °F 13.4 °F 1023.2 in Calm     87 % 0.0 in 0.0 W/m2 CLR
00:37 16.1 °F 13.9 °F 1023.6 in Calm     87 % 0.0 in 0.0 W/m2 CLR
00:42 15.6 °F 13.4 °F 1023.6 in Calm     87 % 0.0 in 0.0 W/m2 CLR
00:47 15.6 °F 13.4 °F 1023.6 in Calm     87 % 0.0 in 0.0 W/m2 CLR
00:52 15.6 °F 13.4 °F 1023.2 in Calm     87 % 0.0 in 0.0 W/m2 CLR
00:57 16.1 °F 13.9 °F 1023.2 in SSE 6.4 mph 6.4 mph 87 % 0.0 in 0.0 W/m2 CLR
01:02 16.7 °F 14.5 °F 1023.2 in Calm     87 % 0.0 in 0.0 W/m2 CLR
01:07 16.7 °F 14.5 °F 1023.2 in Calm     87 % 0.0 in 0.0 W/m2 CLR
01:12 16.7 °F 14.7 °F 1023.2 in South 7.4 mph 7.4 mph 88 % 0.0 in 0.0 W/m2 CLR
01:17 17.2 °F 15.2 °F 1022.9 in South 8.0 mph 8.0 mph 88 % 0.0 in 0.0 W/m2 CLR
01:22 17.2 °F 15.1 °F 1022.9 in South 7.4 mph 7.4 mph 87 % 0.0 in 0.0 W/m2 CLR
01:27 16.7 °F 14.3 °F 1022.9 in Calm   0.5 mph 86 % 0.0 in 0.0 W/m2 CLR
01:32 16.7 °F 14.3 °F 1022.9 in South 5.6 mph   86 % 0.0 in 0.0 W/m2 CLR
01:37 16.7 °F 14.3 °F 1022.9 in South 9.3 mph   86 % 0.0 in 0.0 W/m2 CLR
01:42 16.7 °F 14.1 °F 1022.9 in Calm     85 % 0.0 in 0.0 W/m2 CLR
01:47 16.7 °F 14.1 °F 1022.9 in South 7.4 mph 7.4 mph 85 % 0.0 in 0.0 W/m2 CLR
01:52 16.1 °F 13.6 °F 1023.2 in South 5.6 mph 5.6 mph 85 % 0.0 in 0.0 W/m2 CLR
01:57 16.1 °F 13.4 °F 1022.9 in Calm     84 % 0.0 in 0.0 W/m2 CLR
02:02 16.1 °F 13.4 °F 1022.9 in South 7.4 mph 7.4 mph 84 % 0.0 in 0.0 W/m2 CLR
02:07 15.6 °F 12.9 °F 1022.9 in SSE 9.3 mph   84 % 0.0 in 0.0 W/m2 CLR
02:12 15.6 °F 12.9 °F 1022.9 in Calm     84 % 0.0 in 0.0 W/m2 CLR
02:17 15.6 °F 12.9 °F 1022.9 in Calm     84 % 0.0 in 0.0 W/m2 CLR
02:22 15.0 °F 12.3 °F 1022.9 in Calm     84 % 0.0 in 0.0 W/m2 CLR
02:27 15.0 °F 12.5 °F 1022.9 in Calm     85 % 0.0 in 0.0 W/m2 CLR
02:32 15.0 °F 12.7 °F 1022.9 in South 11.1 mph 11.1 mph 86 % 0.0 in 0.0 W/m2 CLR
02:37 15.0 °F 12.5 °F 1022.9 in South 18.5 mph 18.5 mph 85 % 0.0 in 0.0 W/m2 CLR
02:42 15.0 °F 12.3 °F 1022.6 in South 9.7 mph 9.7 mph 84 % 0.0 in 0.0 W/m2 CLR
02:47 15.6 °F 12.7 °F 1022.9 in Calm     83 % 0.0 in 0.0 W/m2 CLR
02:52 16.1 °F 13.2 °F 1022.9 in Calm     83 % 0.0 in 0.0 W/m2 CLR
02:57 16.1 °F 13.2 °F 1022.6 in Calm     83 % 0.0 in 0.0 W/m2 CLR
03:02 16.1 °F 13.2 °F 1022.6 in Calm     83 % 0.0 in 0.0 W/m2 CLR
03:07 15.6 °F 12.7 °F 1022.6 in Calm     83 % 0.0 in 0.0 W/m2 CLR
03:12 15.6 °F 12.9 °F 1022.9 in Calm     84 % 0.0 in 0.0 W/m2 CLR
03:17 15.6 °F 12.7 °F 1022.9 in Calm     83 % 0.0 in 0.0 W/m2 CLR
03:22 15.0 °F 12.1 °F 1022.9 in Calm     83 % 0.0 in 0.0 W/m2 CLR
03:27 15.0 °F 12.1 °F 1022.9 in Calm     83 % 0.0 in 0.0 W/m2 CLR
03:32 15.0 °F 12.1 °F 1022.9 in Calm     83 % 0.0 in 0.0 W/m2 CLR
03:37 15.0 °F 12.1 °F 1022.9 in Calm     83 % 0.0 in 0.0 W/m2 CLR
03:42 15.0 °F 12.3 °F 1022.9 in Calm     84 % 0.0 in 0.0 W/m2 CLR
03:47 15.0 °F 12.3 °F 1022.9 in Calm     84 % 0.0 in 0.0 W/m2 CLR
03:52 15.0 °F 11.9 °F 1022.6 in South 9.7 mph 9.7 mph 82 % 0.0 in 0.0 W/m2 CLR
03:57 15.0 °F 11.8 °F 1022.6 in South 6.4 mph 6.4 mph 81 % 0.0 in 0.0 W/m2 CLR
04:02 15.0 °F 11.4 °F 1022.6 in South 13.0 mph 13.0 mph 79 % 0.0 in 0.0 W/m2 CLR
04:07 15.0 °F 11.2 °F 1022.6 in SSW 5.6 mph   78 % 0.0 in 0.0 W/m2 CLR
04:12 15.0 °F 11.0 °F 1022.6 in SSW 7.4 mph 7.4 mph 77 % 0.0 in 0.0 W/m2 CLR
04:17 15.0 °F 10.8 °F 1022.6 in SSW 9.3 mph 9.3 mph 76 % 0.0 in 0.0 W/m2 CLR
04:22 15.0 °F 10.6 °F 1022.6 in SSW 13.0 mph 13.0 mph 75 % 0.0 in 0.0 W/m2 CLR
04:27 15.0 °F 10.6 °F 1022.6 in SSW 7.4 mph 7.4 mph 75 % 0.0 in 0.0 W/m2 CLR
04:32 15.0 °F 10.4 °F 1022.6 in SSW 5.6 mph 5.6 mph 74 % 0.0 in 0.0 W/m2 CLR
04:37 15.0 °F 10.2 °F 1022.6 in SSW 11.1 mph 11.1 mph 73 % 0.0 in 0.0 W/m2 CLR
04:42 15.0 °F 10.2 °F 1022.6 in SSW 7.4 mph 7.4 mph 73 % 0.0 in 0.0 W/m2 CLR
04:47 15.0 °F 10.2 °F 1022.6 in SSW 5.6 mph 5.8 mph 73 % 0.0 in 0.0 W/m2 CLR
04:53 15.0 °F 10.0 °F 1022.6 in SSW 5.6 mph   72 % 0.0 in 0.0 W/m2 CLR
04:58 15.0 °F 10.0 °F 1022.6 in Calm     72 % 0.0 in 0.0 W/m2 CLR
05:03 15.0 °F 10.0 °F 1022.9 in Calm     72 % 0.0 in 0.0 W/m2 CLR
05:08 15.6 °F 10.3 °F 1022.9 in SSW 5.6 mph 5.6 mph 71 % 0.0 in 0.0 W/m2 CLR
05:13 15.6 °F 10.3 °F 1022.9 in Calm   1.8 mph 71 % 0.0 in 0.0 W/m2 CLR
05:18 15.6 °F 10.3 °F 1022.9 in SSW 5.6 mph 5.6 mph 71 % 0.0 in 0.0 W/m2 CLR
05:23 16.1 °F 10.8 °F 1022.9 in SSW 9.3 mph 9.3 mph 71 % 0.0 in 0.0 W/m2 CLR
05:28 16.1 °F 10.8 °F 1022.6 in SSW 13.0 mph 13.0 mph 71 % 0.0 in 0.0 W/m2 CLR
05:33 16.1 °F 10.8 °F 1022.6 in SSW 13.0 mph 13.0 mph 71 % 0.0 in 0.0 W/m2 CLR
05:38 16.1 °F 10.8 °F 1022.6 in SW 13.0 mph 13.0 mph 71 % 0.0 in 0.0 W/m2 CLR
05:43 16.1 °F 10.8 °F 1022.6 in SSW 9.3 mph 9.3 mph 71 % 0.0 in 0.0 W/m2 CLR
05:48 15.6 °F 10.3 °F 1022.6 in SSW 3.7 mph 3.7 mph 71 % 0.0 in 0.0 W/m2 CLR
05:53 15.6 °F 10.3 °F 1022.6 in SW 8.0 mph 8.0 mph 71 % 0.0 in 0.0 W/m2 CLR
05:58 15.6 °F 10.3 °F 1022.9 in SSW 5.6 mph 5.6 mph 71 % 0.0 in 0.0 W/m2 CLR
06:03 15.6 °F 10.3 °F 1022.9 in SSW 3.2 mph 3.2 mph 71 % 0.0 in 0.0 W/m2 CLR
06:08 15.0 °F 9.8 °F 1022.9 in SSW 5.6 mph   71 % 0.0 in 0.0 W/m2 CLR
06:13 15.0 °F 9.8 °F 1022.9 in Calm     71 % 0.0 in 0.0 W/m2 CLR
06:18 15.0 °F 9.8 °F 1022.6 in Calm     71 % 0.0 in 0.0 W/m2 CLR
06:23 15.0 °F 9.8 °F 1022.6 in Calm     71 % 0.0 in 0.0 W/m2 CLR
06:28 15.0 °F 10.0 °F 1022.6 in Calm     72 % 0.0 in 0.0 W/m2 CLR
06:33 14.4 °F 9.4 °F 1022.6 in Calm     72 % 0.0 in 0.0 W/m2 CLR
06:38 14.4 °F 9.4 °F 1022.6 in Calm     72 % 0.0 in 0.0 W/m2 CLR
06:43 14.4 °F 9.4 °F 1022.6 in Calm     72 % 0.0 in 0.0 W/m2 CLR
06:48 13.9 °F 8.9 °F 1022.6 in Calm     72 % 0.0 in 0.0 W/m2 CLR
06:53 13.9 °F 8.9 °F 1022.9 in Calm     72 % 0.0 in 0.0 W/m2 CLR
06:58 13.9 °F 8.9 °F 1022.9 in SW 6.4 mph 6.4 mph 72 % 0.0 in 0.0 W/m2 CLR
07:03 13.9 °F 8.7 °F 1022.9 in Calm     71 % 0.0 in 0.0 W/m2 CLR
07:08 13.9 °F 8.7 °F 1022.9 in SSW 5.6 mph 5.6 mph 71 % 0.0 in 0.0 W/m2 CLR
07:13 13.9 °F 8.7 °F 1022.9 in SW 9.3 mph 9.3 mph 71 % 0.0 in 0.0 W/m2 CLR
07:18 13.9 °F 8.7 °F 1022.9 in SW 5.6 mph 5.6 mph 71 % 0.0 in 0.0 W/m2 CLR
07:23 13.9 °F 8.7 °F 1023.2 in SW 5.6 mph 5.6 mph 71 % 0.0 in 0.0 W/m2 CLR
07:28 13.9 °F 8.5 °F 1023.2 in SSW 9.3 mph 9.3 mph 70 % 0.0 in 0.0 W/m2 CLR
07:33 13.9 °F 8.3 °F 1022.9 in SSW 7.4 mph 7.4 mph 69 % 0.0 in 0.0 W/m2 CLR
07:38 13.9 °F 8.3 °F 1022.9 in SSW 9.3 mph 9.3 mph 69 % 0.0 in 0.0 W/m2 CLR
07:43 13.9 °F 8.3 °F 1022.9 in SSW 5.6 mph 5.6 mph 69 % 0.0 in 0.0 W/m2 CLR
07:48 13.9 °F 8.3 °F 1022.9 in SSW 1.9 mph 1.9 mph 69 % 0.0 in 0.0 W/m2 OVC
07:53 13.9 °F 8.3 °F 1022.9 in Calm     69 % 0.0 in 0.0 W/m2 OVC
07:58 13.9 °F 8.3 °F 1022.9 in Calm     69 % 0.0 in 0.0 W/m2 OVC
08:03 13.9 °F 8.3 °F 1022.9 in South 5.6 mph 5.6 mph 69 % 0.0 in 0.0 W/m2 OVC
08:08 13.3 °F 7.6 °F 1023.2 in SSW 3.7 mph 3.7 mph 68 % 0.0 in 5.0 W/m2 OVC
08:13 13.3 °F 7.8 °F 1023.2 in Calm     69 % 0.0 in 9.0 W/m2 BKN
08:18 13.3 °F 7.8 °F 1023.2 in SSW 6.4 mph 6.4 mph 69 % 0.0 in 11.0 W/m2 BKN
08:23 13.3 °F 7.6 °F 1023.2 in SW 14.8 mph 14.8 mph 68 % 0.0 in 14.0 W/m2 BKN
08:28 13.9 °F 7.8 °F 1023.2 in SW 18.5 mph 18.5 mph 67 % 0.0 in 19.0 W/m2 BKN
08:33 13.9 °F 7.8 °F 1023.2 in SSW 13.0 mph 13.0 mph 67 % 0.0 in 25.0 W/m2 BKN
08:38 15.0 °F 8.9 °F 1023.2 in SSW 11.1 mph 11.1 mph 67 % 0.0 in 30.0 W/m2 BKN
08:43 15.6 °F 9.2 °F 1023.2 in SW 16.7 mph 16.7 mph 66 % 0.0 in 33.0 W/m2 BKN
08:48 16.1 °F 9.8 °F 1023.2 in SSW 18.5 mph 18.5 mph 66 % 0.0 in 39.0 W/m2 BKN
08:53 16.7 °F 10.3 °F 1023.6 in SSW 16.7 mph 16.7 mph 66 % 0.0 in 47.0 W/m2 SCT
08:58 16.7 °F 10.3 °F 1023.6 in SSW 9.3 mph 9.3 mph 66 % 0.0 in 53.0 W/m2 SCT
09:03 16.7 °F 10.3 °F 1023.6 in SSW 11.3 mph 11.3 mph 66 % 0.0 in 60.0 W/m2 SCT
09:08 17.2 °F 10.8 °F 1023.6 in SW 16.7 mph 16.7 mph 66 % 0.0 in 69.0 W/m2 SCT
09:13 17.2 °F 10.8 °F 1023.6 in West 20.9 mph 20.9 mph 66 % 0.0 in 79.0 W/m2 FEW
09:18 17.2 °F 10.8 °F 1023.6 in SSW 25.9 mph 25.9 mph 66 % 0.0 in 83.0 W/m2 FEW
09:23 17.2 °F 10.8 °F 1023.6 in South 20.9 mph 20.9 mph 66 % 0.0 in 90.0 W/m2 FEW
09:28 17.2 °F 11.1 °F 1023.9 in SW 16.7 mph 16.7 mph 67 % 0.0 in 95.0 W/m2 CLR
09:33 17.2 °F 10.8 °F 1023.9 in SSW 16.7 mph 16.7 mph 66 % 0.0 in 107.0 W/m2 CLR
09:38 17.8 °F 11.3 °F 1023.9 in SW 13.0 mph 13.0 mph 66 % 0.0 in 111.0 W/m2 CLR
09:43 17.8 °F 11.6 °F 1023.9 in SW 13.0 mph 13.0 mph 67 % 0.0 in 114.0 W/m2 CLR
09:48 17.8 °F 11.6 °F 1023.9 in SSW 20.4 mph 20.4 mph 67 % 0.0 in 123.0 W/m2 CLR
09:53 17.8 °F 11.6 °F 1023.9 in SSW 18.5 mph 18.5 mph 67 % 0.0 in 137.0 W/m2 CLR
09:58 17.8 °F 11.6 °F 1023.9 in SW 18.5 mph 18.5 mph 67 % 0.0 in 148.0 W/m2 CLR
10:03 17.8 °F 11.6 °F 1023.9 in SW 11.3 mph 11.3 mph 67 % 0.0 in 155.0 W/m2 CLR
10:09 17.8 °F 11.6 °F 1024.3 in SSW 18.5 mph 18.5 mph 67 % 0.0 in 162.0 W/m2 CLR
10:14 17.8 °F 11.6 °F 1023.9 in SSW 7.4 mph 7.4 mph 67 % 0.0 in 167.0 W/m2 CLR
10:19 17.8 °F 11.6 °F 1023.9 in SW 18.5 mph 18.5 mph 67 % 0.0 in 178.0 W/m2 CLR
10:24 18.3 °F 11.9 °F 1023.9 in SW 11.1 mph 11.1 mph 66 % 0.0 in 185.0 W/m2 CLR
10:29 18.3 °F 11.6 °F 1023.9 in SSW 16.7 mph 16.7 mph 65 % 0.0 in 190.0 W/m2 CLR
10:34 18.3 °F 11.4 °F 1023.9 in SW 24.1 mph 24.1 mph 64 % 0.0 in 197.0 W/m2 CLR
10:39 18.3 °F 11.2 °F 1023.9 in SW 22.5 mph 22.5 mph 63 % 0.0 in 214.0 W/m2 CLR
10:44 18.3 °F 10.7 °F 1023.9 in SW 24.1 mph 24.1 mph 61 % 0.0 in 255.0 W/m2 CLR
10:49 18.9 °F 10.9 °F 1023.9 in SW 22.2 mph 22.2 mph 60 % 0.0 in 297.0 W/m2 CLR
10:54 18.9 °F 10.7 °F 1023.9 in SSW 25.9 mph 25.9 mph 59 % 0.0 in 308.0 W/m2 CLR
10:59 18.9 °F 10.4 °F 1023.9 in SW 24.1 mph 24.1 mph 58 % 0.0 in 294.0 W/m2 CLR
11:04 19.4 °F 10.9 °F 1023.9 in SW 18.5 mph 18.5 mph 58 % 0.0 in 322.0 W/m2 CLR
11:09 19.4 °F 10.2 °F 1023.9 in SW 29.6 mph 29.6 mph 55 % 0.0 in 316.0 W/m2 CLR
11:14 19.4 °F 9.6 °F 1023.9 in WSW 29.0 mph 29.0 mph 53 % 0.0 in 311.0 W/m2 CLR
11:19 19.4 °F 9.6 °F 1023.9 in SW 24.1 mph 24.1 mph 53 % 0.0 in 320.0 W/m2 CLR
11:24 19.4 °F 9.3 °F 1023.9 in SW 24.1 mph 24.1 mph 52 % 0.0 in 376.0 W/m2 CLR
11:29 20.0 °F 8.9 °F 1023.9 in WSW 27.8 mph 27.8 mph 49 % 0.0 in 432.0 W/m2 CLR
11:34 20.0 °F 9.3 °F 1023.9 in SW 22.2 mph 22.2 mph 50 % 0.0 in 418.0 W/m2 CLR
11:39 20.0 °F 9.3 °F 1023.9 in SW 33.3 mph 33.3 mph 50 % 0.0 in 439.0 W/m2 CLR
11:44 20.6 °F 9.4 °F 1023.9 in SSW 24.1 mph 24.1 mph 49 % 0.0 in 543.0 W/m2 CLR
11:49 20.6 °F 9.4 °F 1023.9 in SW 25.9 mph 25.9 mph 49 % 0.0 in 462.0 W/m2 CLR
11:54 21.1 °F 9.3 °F 1023.9 in SW 22.2 mph 22.2 mph 47 % 0.0 in 578.0 W/m2 CLR
11:59 21.1 °F 9.3 °F 1023.9 in SW 31.5 mph 31.5 mph 47 % 0.0 in 408.0 W/m2 CLR
12:04 21.1 °F 9.3 °F 1023.9 in SW 13.0 mph 13.0 mph 47 % 0.0 in 480.0 W/m2 CLR
12:09 21.1 °F 9.7 °F 1023.9 in SW 18.5 mph 18.5 mph 48 % 0.0 in 510.0 W/m2 CLR
12:14 21.1 °F 9.3 °F 1023.9 in SW 31.5 mph 31.5 mph 47 % 0.0 in 478.0 W/m2 CLR
12:19 21.1 °F 9.3 °F 1023.9 in WSW 29.6 mph 29.6 mph 47 % 0.0 in 559.0 W/m2 CLR
12:24 21.1 °F 9.3 °F 1023.9 in SW 31.5 mph 31.5 mph 47 % 0.0 in 464.0 W/m2 CLR
12:29 21.1 °F 9.7 °F 1023.9 in SSW 27.8 mph 27.8 mph 48 % 0.0 in 415.0 W/m2 CLR
12:34 21.1 °F 9.7 °F 1024.3 in SSW 24.1 mph 24.1 mph 48 % 0.0 in 410.0 W/m2 CLR
12:39 21.1 °F 9.7 °F 1024.3 in WSW 22.2 mph 22.2 mph 48 % 0.0 in 684.0 W/m2 CLR
12:44 21.1 °F 10.0 °F 1024.3 in SW 31.5 mph 31.5 mph 49 % 0.0 in 346.0 W/m2 CLR
12:49 21.1 °F 10.6 °F 1024.3 in WSW 31.5 mph 31.5 mph 51 % 0.0 in 399.0 W/m2 CLR
12:50 21.1 °F 10.9 °F 1024.3 in West 31.5 mph 31.5 mph 52 % 0.0 in 399.0 W/m2 CLR
12:55 21.1 °F 11.7 °F 1024.3 in WSW 31.5 mph 31.5 mph 55 % 0.0 in 420.0 W/m2 CLR
13:00 21.1 °F 12.0 °F 1024.3 in West 31.5 mph 31.5 mph 56 % 0.0 in 450.0 W/m2 CLR
13:05 21.1 °F 12.3 °F 1023.9 in WSW 38.9 mph 38.9 mph 57 % 0.0 in 392.0 W/m2 CLR
13:10 21.1 °F 12.5 °F 1023.9 in WSW 20.4 mph 20.4 mph 58 % 0.0 in 417.0 W/m2 CLR
13:15 21.1 °F 12.5 °F 1023.9 in WSW 18.5 mph 18.5 mph 58 % 0.0 in 563.0 W/m2 CLR
13:20 21.7 °F 12.5 °F 1023.9 in SW 31.5 mph 31.5 mph 56 % 0.0 in 788.0 W/m2 CLR
13:25 22.2 °F 13.0 °F 1023.9 in SW 24.1 mph 24.1 mph 56 % 0.0 in 788.0 W/m2 CLR
13:30 22.8 °F 13.3 °F 1023.6 in SW 37.0 mph 37.0 mph 55 % 0.0 in 1004.0 W/m2 CLR
13:35 22.2 °F 13.0 °F 1023.6 in WSW 35.4 mph 35.4 mph 56 % 0.0 in 355.0 W/m2 CLR
13:40 22.2 °F 13.3 °F 1023.6 in SSW 22.2 mph 22.2 mph 57 % 0.0 in 425.0 W/m2 CLR
13:45 22.2 °F 13.0 °F 1023.6 in SW 24.1 mph 24.1 mph 56 % 0.0 in 381.0 W/m2 CLR
13:50 21.7 °F 12.5 °F 1023.6 in West 29.6 mph 29.6 mph 56 % 0.0 in 401.0 W/m2 CLR
13:55 21.7 °F 12.5 °F 1023.6 in WSW 31.5 mph 31.5 mph 56 % 0.0 in 392.0 W/m2 CLR
14:00 22.2 °F 13.0 °F 1023.2 in West 27.8 mph 27.8 mph 56 % 0.0 in 364.0 W/m2 CLR
14:05 21.7 °F 12.5 °F 1023.2 in WSW 29.6 mph 29.6 mph 56 % 0.0 in 399.0 W/m2 CLR
14:10 21.7 °F 12.5 °F 1023.2 in West 25.7 mph 25.7 mph 56 % 0.0 in 515.0 W/m2 CLR
14:15 21.7 °F 12.5 °F 1023.6 in SW 24.1 mph 24.1 mph 56 % 0.0 in 394.0 W/m2 CLR
14:20 21.7 °F 12.5 °F 1023.6 in West 31.5 mph 31.5 mph 56 % 0.0 in 346.0 W/m2 CLR
14:25 21.7 °F 12.8 °F 1023.6 in West 30.6 mph 30.6 mph 57 % 0.0 in 334.0 W/m2 CLR
14:30 21.7 °F 12.8 °F 1023.6 in SW 19.3 mph 19.3 mph 57 % 0.0 in 339.0 W/m2 CLR
14:35 21.7 °F 12.8 °F 1023.6 in WSW 20.4 mph 20.4 mph 57 % 0.0 in 325.0 W/m2 CLR
14:40 21.7 °F 13.1 °F 1023.6 in West 27.4 mph 27.4 mph 58 % 0.0 in 345.0 W/m2 CLR
14:45 21.7 °F 13.1 °F 1023.6 in West 29.6 mph 29.6 mph 58 % 0.0 in 329.0 W/m2 CLR
14:50 21.7 °F 13.3 °F 1023.6 in SW 31.5 mph 31.5 mph 59 % 0.0 in 519.0 W/m2 CLR
14:55 22.2 °F 13.8 °F 1023.6 in SW 31.5 mph 31.5 mph 59 % 0.0 in 605.0 W/m2 CLR
15:00 22.2 °F 13.8 °F 1023.6 in WSW 35.4 mph 35.4 mph 59 % 0.0 in 642.0 W/m2 CLR
15:05 22.8 °F 14.3 °F 1023.6 in West 35.2 mph 35.2 mph 59 % 0.0 in 543.0 W/m2 CLR
15:10 22.2 °F 13.8 °F 1023.6 in SW 31.5 mph 31.5 mph 59 % 0.0 in 506.0 W/m2 CLR
15:15 22.2 °F 13.8 °F 1023.6 in WSW 27.8 mph 27.8 mph 59 % 0.0 in 459.0 W/m2 CLR
15:20 22.2 °F 13.6 °F 1023.6 in West 30.6 mph 30.6 mph 58 % 0.0 in 413.0 W/m2 CLR
15:25 21.7 °F 13.3 °F 1023.6 in WSW 24.1 mph 24.1 mph 59 % 0.0 in 408.0 W/m2 CLR
15:30 21.7 °F 13.3 °F 1023.6 in SW 37.0 mph 37.0 mph 59 % 0.0 in 455.0 W/m2 CLR
15:35 22.2 °F 13.8 °F 1023.6 in WSW 31.5 mph 31.5 mph 59 % 0.0 in 383.0 W/m2 CLR
15:40 21.7 °F 13.3 °F 1023.6 in SW 33.3 mph 33.3 mph 59 % 0.0 in 360.0 W/m2 CLR
15:45 21.7 °F 13.6 °F 1023.6 in WSW 24.1 mph 24.1 mph 60 % 0.0 in 429.0 W/m2 CLR
15:50 21.7 °F 13.6 °F 1023.6 in SW 22.5 mph 22.5 mph 60 % 0.0 in 339.0 W/m2 CLR
15:55 21.7 °F 13.3 °F 1023.6 in SW 29.6 mph 29.6 mph 59 % 0.0 in 283.0 W/m2 CLR
16:00 21.1 °F 13.1 °F 1023.6 in SW 22.5 mph 22.5 mph 60 % 0.0 in 285.0 W/m2 CLR
16:05 21.1 °F 13.1 °F 1023.6 in SW 31.5 mph 31.5 mph 60 % 0.0 in 338.0 W/m2 CLR
16:10 21.7 °F 13.6 °F 1023.6 in West 31.5 mph 31.5 mph 60 % 0.0 in 452.0 W/m2 CLR
16:15 21.7 °F 13.6 °F 1023.2 in West 24.1 mph 24.1 mph 60 % 0.0 in 323.0 W/m2 CLR
16:20 21.7 °F 13.6 °F 1023.6 in SW 27.4 mph 27.4 mph 60 % 0.0 in 309.0 W/m2 CLR
16:25 21.7 °F 13.8 °F 1023.6 in SSW 20.4 mph 20.4 mph 61 % 0.0 in 299.0 W/m2 CLR
16:30 21.7 °F 13.6 °F 1023.6 in WNW 19.3 mph 19.3 mph 60 % 0.0 in 323.0 W/m2 CLR
16:35 21.1 °F 12.8 °F 1023.6 in SW 18.5 mph 18.5 mph 59 % 0.0 in 315.0 W/m2 CLR
16:40 21.1 °F 13.1 °F 1023.6 in WSW 18.5 mph 18.5 mph 60 % 0.0 in 279.0 W/m2 CLR
16:45 21.1 °F 12.5 °F 1023.6 in SW 25.9 mph 25.9 mph 58 % 0.0 in 243.0 W/m2 CLR
16:50 21.1 °F 12.8 °F 1023.6 in West 20.4 mph 20.4 mph 59 % 0.0 in 221.0 W/m2 CLR
16:55 21.1 °F 12.8 °F 1023.6 in West 18.5 mph 18.5 mph 59 % 0.0 in 216.0 W/m2 CLR
17:00 21.1 °F 13.1 °F 1023.6 in WSW 18.5 mph 18.5 mph 60 % 0.0 in 211.0 W/m2 CLR
17:01 21.1 °F 13.1 °F 1023.6 in WSW 18.5 mph 18.5 mph 60 % 0.0 in 211.0 W/m2 CLR
17:06 21.1 °F 13.1 °F 1023.6 in SW 16.7 mph 16.7 mph 60 % 0.0 in 200.0 W/m2 CLR
17:11 21.1 °F 13.1 °F 1023.6 in SW 18.5 mph 18.5 mph 60 % 0.0 in 186.0 W/m2 CLR
17:16 21.1 °F 13.3 °F 1023.6 in WSW 18.5 mph 18.5 mph 61 % 0.0 in 160.0 W/m2 CLR
17:21 21.1 °F 13.1 °F 1023.6 in West 22.2 mph 22.2 mph 60 % 0.0 in 135.0 W/m2 CLR
17:26 20.6 °F 12.5 °F 1023.2 in SW 16.7 mph 16.7 mph 60 % 0.0 in 120.0 W/m2 CLR
17:31 20.6 °F 12.5 °F 1023.6 in West 18.5 mph 18.5 mph 60 % 0.0 in 118.0 W/m2 CLR
17:36 20.6 °F 12.8 °F 1023.6 in West 5.6 mph 5.6 mph 61 % 0.0 in 121.0 W/m2 CLR
17:41 20.6 °F 12.8 °F 1023.6 in WSW 5.6 mph 5.6 mph 61 % 0.0 in 118.0 W/m2 CLR
17:46 21.1 °F 13.3 °F 1023.6 in WSW 20.4 mph 20.4 mph 61 % 0.0 in 104.0 W/m2 CLR
17:51 21.1 °F 13.6 °F 1023.6 in WSW 24.1 mph 24.1 mph 62 % 0.0 in 90.0 W/m2 CLR
17:56 21.1 °F 14.1 °F 1023.6 in WSW 18.5 mph 18.5 mph 64 % 0.0 in 76.0 W/m2 CLR
18:01 21.1 °F 14.1 °F 1023.6 in WSW 18.5 mph 18.5 mph 64 % 0.0 in 74.0 W/m2 FEW
18:06 21.1 °F 14.1 °F 1023.6 in SW 11.1 mph 11.1 mph 64 % 0.0 in 79.0 W/m2 FEW
18:11 21.1 °F 14.1 °F 1023.6 in SW 20.4 mph 20.4 mph 64 % 0.0 in 86.0 W/m2 FEW
18:16 21.1 °F 14.3 °F 1023.6 in SW 18.5 mph 18.5 mph 65 % 0.0 in 90.0 W/m2 CLR
18:21 21.1 °F 14.3 °F 1023.6 in SW 9.3 mph 9.3 mph 65 % 0.0 in 88.0 W/m2 CLR
18:26 21.1 °F 14.3 °F 1023.6 in WSW 18.5 mph 18.5 mph 65 % 0.0 in 74.0 W/m2 CLR
18:31 21.1 °F 14.3 °F 1023.6 in SW 14.8 mph 14.8 mph 65 % 0.0 in 56.0 W/m2 FEW
18:36 21.1 °F 14.3 °F 1023.6 in SW 20.9 mph 20.9 mph 65 % 0.0 in 56.0 W/m2 SCT
18:41 21.1 °F 14.3 °F 1023.6 in West 7.4 mph 7.4 mph 65 % 0.0 in 54.0 W/m2 SCT
18:46 21.1 °F 14.3 °F 1023.6 in WSW 18.5 mph 18.5 mph 65 % 0.0 in 40.0 W/m2 BKN
18:51 21.1 °F 14.3 °F 1023.6 in WSW 17.7 mph 17.7 mph 65 % 0.0 in 39.0 W/m2 BKN
18:56 21.1 °F 14.3 °F 1023.6 in SW 25.9 mph 25.9 mph 65 % 0.0 in 30.0 W/m2 BKN
19:01 21.1 °F 14.3 °F 1023.6 in WSW 25.9 mph 25.9 mph 65 % 0.0 in 26.0 W/m2 BKN
19:06 21.1 °F 14.3 °F 1023.6 in SW 18.5 mph 18.5 mph 65 % 0.0 in 23.0 W/m2 BKN
19:11 21.1 °F 14.5 °F 1023.6 in SW 9.3 mph   66 % 0.0 in 21.0 W/m2 BKN
19:21 21.1 °F 14.5 °F 1023.6 in SW 22.2 mph 22.2 mph 66 % 0.0 in 18.0 W/m2 BKN
19:26 21.1 °F 14.5 °F 1023.6 in WSW 24.1 mph 24.1 mph 66 % 0.0 in 14.0 W/m2 BKN
19:31 21.1 °F 14.5 °F 1023.6 in SW 17.7 mph 17.7 mph 66 % 0.0 in 9.0 W/m2 BKN
19:36 21.1 °F 14.5 °F 1023.6 in SSW 16.7 mph 16.7 mph 66 % 0.0 in 5.0 W/m2 OVC
19:41 20.6 °F 14.2 °F 1023.6 in SW 5.6 mph 5.6 mph 67 % 0.0 in 0.0 W/m2 OVC
19:46 20.6 °F 14.2 °F 1023.6 in SW 8.0 mph 8.0 mph 67 % 0.0 in 0.0 W/m2 OVC
19:52 20.6 °F 14.2 °F 1023.6 in SW 5.6 mph 5.6 mph 67 % 0.0 in 0.0 W/m2 OVC
19:57 20.6 °F 14.2 °F 1023.6 in SW 6.4 mph 6.4 mph 67 % 0.0 in 0.0 W/m2 CLR
20:02 20.6 °F 14.4 °F 1023.6 in SW 5.6 mph 5.6 mph 68 % 0.0 in 0.0 W/m2 CLR
20:07 20.0 °F 13.7 °F 1023.6 in SW 9.3 mph 9.3 mph 67 % 0.0 in 0.0 W/m2 CLR
20:12 20.6 °F 14.4 °F 1023.6 in Calm     68 % 0.0 in 0.0 W/m2 CLR
20:17 20.0 °F 13.9 °F 1023.6 in Calm     68 % 0.0 in 0.0 W/m2 CLR
20:22 20.6 °F 14.4 °F 1023.6 in SW 9.3 mph 9.3 mph 68 % 0.0 in 0.0 W/m2 CLR
20:27 20.6 °F 14.4 °F 1023.9 in Calm     68 % 0.0 in 0.0 W/m2 CLR
20:32 20.6 °F 14.4 °F 1023.9 in Calm     68 % 0.0 in 0.0 W/m2 CLR
20:37 20.6 °F 14.4 °F 1023.9 in SW 11.1 mph 11.1 mph 68 % 0.0 in 0.0 W/m2 CLR
20:42 20.6 °F 14.4 °F 1023.9 in SW 7.4 mph   68 % 0.0 in 0.0 W/m2 CLR
20:47 20.6 °F 14.4 °F 1023.9 in SW 5.6 mph 5.6 mph 68 % 0.0 in 0.0 W/m2 CLR
20:52 20.6 °F 14.4 °F 1023.9 in SW 5.6 mph 5.6 mph 68 % 0.0 in 0.0 W/m2 CLR
20:57 20.6 °F 14.4 °F 1023.9 in Calm     68 % 0.0 in 0.0 W/m2 CLR
21:02 20.6 °F 14.4 °F 1023.9 in SSW 14.5 mph 14.5 mph 68 % 0.0 in 0.0 W/m2 CLR
21:07 20.6 °F 14.4 °F 1023.9 in WSW 5.6 mph 5.6 mph 68 % 0.0 in 0.0 W/m2 CLR
21:12 20.6 °F 14.4 °F 1024.3 in Calm     68 % 0.0 in 0.0 W/m2 CLR
21:17 20.6 °F 14.4 °F 1024.3 in West 16.7 mph 16.7 mph 68 % 0.0 in 0.0 W/m2 CLR
21:22 20.6 °F 14.4 °F 1024.3 in SW 5.6 mph 5.6 mph 68 % 0.0 in 0.0 W/m2 CLR
21:27 20.6 °F 14.4 °F 1024.3 in SSW 5.6 mph 5.6 mph 68 % 0.0 in 0.0 W/m2 CLR
21:32 20.6 °F 14.4 °F 1024.3 in SW 11.3 mph 11.3 mph 68 % 0.0 in 0.0 W/m2 CLR
21:37 20.6 °F 14.4 °F 1024.3 in Calm     68 % 0.0 in 0.0 W/m2 CLR
21:42 20.6 °F 14.4 °F 1024.3 in WSW 9.3 mph 9.3 mph 68 % 0.0 in 0.0 W/m2 CLR
21:47 20.6 °F 14.4 °F 1024.3 in SSW 14.8 mph 14.8 mph 68 % 0.0 in 0.0 W/m2 CLR
21:52 20.6 °F 14.4 °F 1024.3 in WSW 13.0 mph 13.0 mph 68 % 0.0 in 0.0 W/m2 CLR
21:57 20.6 °F 14.4 °F 1024.3 in SW 22.2 mph 22.2 mph 68 % 0.0 in 0.0 W/m2 CLR
22:02 20.6 °F 14.4 °F 1024.3 in SW 16.7 mph 16.7 mph 68 % 0.0 in 0.0 W/m2 CLR
22:07 20.6 °F 14.4 °F 1024.3 in SW 25.9 mph 25.9 mph 68 % 0.0 in 0.0 W/m2 CLR
22:12 20.6 °F 14.4 °F 1024.6 in WSW 22.2 mph 22.2 mph 68 % 0.0 in 0.0 W/m2 CLR
22:17 20.6 °F 14.4 °F 1024.6 in SW 20.4 mph 20.4 mph 68 % 0.0 in 0.0 W/m2 CLR
22:22 20.6 °F 14.7 °F 1024.6 in SW 14.8 mph 14.8 mph 69 % 0.0 in 0.0 W/m2 CLR
22:27 20.6 °F 14.7 °F 1024.3 in WSW 14.8 mph 14.8 mph 69 % 0.0 in 0.0 W/m2 CLR
22:32 20.6 °F 14.7 °F 1024.3 in SSW 22.2 mph 22.2 mph 69 % 0.0 in 0.0 W/m2 CLR
22:37 20.0 °F 14.1 °F 1024.6 in WSW 18.5 mph 18.5 mph 69 % 0.0 in 0.0 W/m2 CLR
22:42 20.0 °F 14.3 °F 1024.6 in SW 18.5 mph 18.5 mph 70 % 0.0 in 0.0 W/m2 CLR
22:47 20.0 °F 14.3 °F 1024.6 in SW 24.1 mph 24.1 mph 70 % 0.0 in 0.0 W/m2 CLR
22:52 20.0 °F 14.3 °F 1024.6 in SW 14.8 mph 14.8 mph 70 % 0.0 in 0.0 W/m2 CLR
22:57 20.0 °F 14.3 °F 1024.6 in SSW 22.5 mph 22.5 mph 70 % 0.0 in 0.0 W/m2 CLR
23:02 20.0 °F 14.3 °F 1024.6 in SSW 18.5 mph 18.5 mph 70 % 0.0 in 0.0 W/m2 CLR
23:07 20.0 °F 14.6 °F 1024.6 in SSW 24.1 mph 24.1 mph 71 % 0.0 in 0.0 W/m2 CLR
23:12 20.0 °F 14.3 °F 1024.6 in SSW 5.6 mph 5.6 mph 70 % 0.0 in 0.0 W/m2 CLR
23:17 20.0 °F 14.6 °F 1024.6 in SW 25.9 mph 25.9 mph 71 % 0.0 in 0.0 W/m2 CLR
23:22 20.0 °F 14.6 °F 1024.6 in SW 5.6 mph 5.6 mph 71 % 0.0 in 0.0 W/m2 CLR
23:27 20.0 °F 14.6 °F 1024.9 in SSW 13.0 mph 13.0 mph 71 % 0.0 in 0.0 W/m2 CLR
23:32 19.4 °F 14.1 °F 1024.9 in SW 16.7 mph 16.7 mph 71 % 0.0 in 0.0 W/m2 CLR
23:37 19.4 °F 14.3 °F 1024.9 in Calm     72 % 0.0 in 0.0 W/m2 CLR
23:42 19.4 °F 14.3 °F 1024.6 in SSW 4.8 mph 4.8 mph 72 % 0.0 in 0.0 W/m2 CLR
23:47 19.4 °F 14.3 °F 1024.6 in SW 7.4 mph 7.4 mph 72 % 0.0 in 0.0 W/m2 CLR
23:52 18.9 °F 13.7 °F 1024.9 in Calm     72 % 0.0 in 0.0 W/m2 CLR
23:53 18.9 °F 13.7 °F 1024.9 in SSW 11.3 mph 11.3 mph 72 % 0.0 in 0.0 W/m2 CLR
23:58 19.4 °F 14.5 °F 1024.9 in SW 18.5 mph 18.5 mph 73 % 0.0 in 0.0 W/m2 CLR
Lo Temps de Massalio
Compliments of Weather Underground - 1.25 mb